ěÝzenÝ letovÚho provozu ╚eskÚ republiky
Letiste: LKPR Aktualizace: 19.06.2024 05:00:40  UTC
 METAR LKPR 19.06. 05:00 ...
METAR LKPR 190500Z 25005KT CAVOK 20/16 Q1013 NOSIG=
 TAF LKPR 19.06. 02:00 ...
TAF LKPR 190200Z 1903/2009 24009KT CAVOK      TEMPO 1904/1918 9000 -SHRA SCT045TCU      BECMG 1912/1914 33010KT      PROB40 TEMPO 1915/1918 36012G26KT 5000 TSRA SCT035CB      TEMPO 2001/2004 VRB02KT 2000 MIFG NSC=